createdAt,value
2018-12-19T00:00:48.709Z,71.98
2018-12-19T00:01:48.750Z,72.39
2018-12-19T00:02:48.687Z,72.19
2018-12-19T00:03:48.689Z,71.46
2018-12-19T00:04:48.656Z,72.15
2018-12-19T00:05:48.649Z,72.19
2018-12-19T00:06:48.711Z,71.98
2018-12-19T00:07:48.618Z,71.46
2018-12-19T00:08:48.637Z,71.46
2018-12-19T00:09:48.634Z,71.98
2018-12-19T00:10:48.627Z,71.84
2018-12-19T00:11:48.636Z,71.53
2018-12-19T00:12:48.594Z,71.98
2018-12-19T00:13:48.595Z,72.08
2018-12-19T00:14:48.546Z,71.98
2018-12-19T00:15:48.568Z,71.56
2018-12-19T00:16:48.563Z,71.63
2018-12-19T00:17:48.551Z,71.43
2018-12-19T00:18:48.507Z,71.98
2018-12-19T00:19:48.507Z,71.46
2018-12-19T00:20:48.497Z,71.56
2018-12-19T00:21:48.485Z,72.19
2018-12-19T00:22:48.464Z,71.46
2018-12-19T00:23:48.470Z,71.77
2018-12-19T00:24:48.441Z,71.77
2018-12-19T00:25:48.424Z,71.46
2018-12-19T00:26:48.417Z,71.67
2018-12-19T00:27:48.449Z,71.67
2018-12-19T00:28:48.399Z,71.56
2018-12-19T00:29:48.401Z,71.88
2018-12-19T00:30:48.392Z,70.73
2018-12-19T00:31:48.398Z,70.70
2018-12-19T00:32:48.376Z,71.25
2018-12-19T00:33:48.389Z,71.04
2018-12-19T00:34:48.370Z,70.94
2018-12-19T00:35:48.316Z,70.63
2018-12-19T00:36:48.303Z,70.63
2018-12-19T00:37:48.345Z,70.60
2018-12-19T00:38:48.274Z,70.21
2018-12-19T00:39:48.308Z,70.81
2018-12-19T00:40:48.258Z,70.32
2018-12-19T00:41:48.245Z,70.39
2018-12-19T00:42:48.233Z,70.32
2018-12-19T00:43:48.229Z,70.50
2018-12-19T00:44:48.219Z,70.39
2018-12-19T00:45:48.272Z,70.50
2018-12-19T00:46:48.194Z,69.98
2018-12-19T00:47:48.207Z,69.87
2018-12-19T00:48:48.180Z,70.18
2018-12-19T00:49:48.194Z,70.18
2018-12-19T00:50:48.190Z,70.50
2018-12-19T00:51:48.182Z,70.29
2018-12-19T00:52:48.153Z,70.29
2018-12-19T00:53:48.170Z,69.87
2018-12-19T00:54:48.105Z,69.87
2018-12-19T00:55:48.112Z,69.77
2018-12-19T00:56:48.132Z,69.87
2018-12-19T00:57:48.071Z,69.87
2018-12-19T00:58:48.103Z,70.39
2018-12-19T00:59:48.057Z,70.39
2018-12-19T01:00:48.084Z,70.18
2018-12-19T01:01:48.077Z,69.87
2018-12-19T01:02:48.015Z,69.67
2018-12-19T01:03:48.030Z,69.87
2018-12-19T01:04:48.282Z,70.08
2018-12-19T01:05:47.988Z,70.08
2018-12-19T01:06:48.010Z,69.87
2018-12-19T01:07:47.960Z,69.35
2018-12-19T01:08:47.984Z,69.87
2018-12-19T01:09:47.959Z,69.87
2018-12-19T01:10:47.930Z,69.67
2018-12-19T01:11:47.932Z,69.87
2018-12-19T01:12:47.944Z,70.08
2018-12-19T01:13:48.202Z,69.46
2018-12-19T01:14:47.891Z,69.77
2018-12-19T01:15:47.882Z,69.67
2018-12-19T01:16:47.879Z,68.74
2018-12-19T01:17:47.870Z,68.84
2018-12-19T01:18:47.876Z,68.94
2018-12-19T01:19:47.873Z,69.04
2018-12-19T01:20:47.838Z,68.91
2018-12-19T01:21:47.809Z,68.80
2018-12-19T01:22:47.805Z,68.70
2018-12-19T01:23:47.816Z,69.15
2018-12-19T01:24:47.829Z,68.84
2018-12-19T01:25:47.758Z,68.60
2018-12-19T01:26:47.776Z,68.80
2018-12-19T01:27:47.787Z,68.91
2018-12-19T01:28:47.789Z,69.01
2018-12-19T01:29:47.763Z,68.91
2018-12-19T01:30:47.730Z,68.91
2018-12-19T01:31:47.736Z,68.80
2018-12-19T01:32:47.686Z,69.01
2018-12-19T01:33:47.698Z,68.19
2018-12-19T01:34:47.739Z,69.01
2018-12-19T01:35:47.714Z,68.40
2018-12-19T01:36:47.652Z,68.29
2018-12-19T01:37:47.632Z,68.40
2018-12-19T01:38:47.642Z,68.29
2018-12-19T01:39:47.630Z,67.98
2018-12-19T01:40:47.620Z,67.77
2018-12-19T01:41:47.646Z,67.80
2018-12-19T01:42:47.583Z,67.98
2018-12-19T01:43:47.572Z,67.77
2018-12-19T01:44:47.556Z,67.80
2018-12-19T01:45:47.556Z,68.08
2018-12-19T01:46:47.571Z,67.80
2018-12-19T01:47:47.544Z,67.98
2018-12-19T01:48:47.507Z,67.57
2018-12-19T01:49:47.498Z,67.77
2018-12-19T01:50:47.542Z,68.08
2018-12-19T01:51:47.501Z,67.91
2018-12-19T01:52:47.460Z,68.12
2018-12-19T01:53:47.454Z,67.98
2018-12-19T01:54:47.441Z,67.88
2018-12-19T01:55:47.472Z,67.77
2018-12-19T01:56:47.451Z,67.88
2018-12-19T01:57:47.428Z,67.88
2018-12-19T01:58:47.418Z,67.88
2018-12-19T01:59:47.424Z,67.67
2018-12-19T02:00:47.397Z,68.19
2018-12-19T02:01:47.404Z,68.08
2018-12-19T02:02:47.376Z,67.98
2018-12-19T02:03:47.374Z,67.98
2018-12-19T02:04:47.374Z,67.67
2018-12-19T02:05:47.345Z,68.01
2018-12-19T02:06:47.317Z,67.98
2018-12-19T02:07:47.307Z,68.08
2018-12-19T02:08:47.330Z,68.08
2018-12-19T02:09:47.273Z,67.88
2018-12-19T02:10:47.327Z,67.77
2018-12-19T02:11:47.255Z,67.88
2018-12-19T02:12:47.243Z,67.88
2018-12-19T02:13:47.261Z,67.98
2018-12-19T02:14:47.284Z,67.67
2018-12-19T02:15:47.223Z,67.88
2018-12-19T02:16:47.230Z,67.88
2018-12-19T02:17:47.182Z,67.77
2018-12-19T02:18:47.183Z,67.98
2018-12-19T02:19:47.192Z,67.77
2018-12-19T02:20:47.176Z,68.19
2018-12-19T02:21:47.188Z,68.19
2018-12-19T02:22:47.293Z,67.88
2018-12-19T02:23:47.126Z,68.40
2018-12-19T02:24:47.135Z,68.49
2018-12-19T02:25:47.139Z,68.60
2018-12-19T02:26:47.118Z,68.08
2018-12-19T02:27:47.080Z,68.29
2018-12-19T02:28:47.109Z,68.40
2018-12-19T02:29:47.081Z,68.60
2018-12-19T02:30:47.108Z,68.40
2018-12-19T02:31:47.033Z,68.80
2018-12-19T02:32:47.094Z,68.91
2018-12-19T02:33:47.057Z,69.01
2018-12-19T02:34:47.070Z,69.12
2018-12-19T02:35:47.013Z,69.01
2018-12-19T02:36:46.996Z,68.91
2018-12-19T02:37:47.285Z,69.01
2018-12-19T02:38:46.979Z,68.91
2018-12-19T02:39:46.949Z,68.80
2018-12-19T02:40:46.956Z,69.12
2018-12-19T02:41:46.980Z,69.01
2018-12-19T02:42:46.911Z,69.22
2018-12-19T02:43:46.956Z,69.12
2018-12-19T02:44:46.941Z,69.01
2018-12-19T02:45:46.904Z,69.22
2018-12-19T02:46:46.886Z,69.32
2018-12-19T02:47:46.887Z,68.80
2018-12-19T02:48:46.869Z,69.22
2018-12-19T02:49:46.852Z,69.74
2018-12-19T02:50:46.852Z,69.53
2018-12-19T02:51:46.812Z,69.95
2018-12-19T02:52:46.875Z,69.53
2018-12-19T02:53:46.791Z,69.32
2018-12-19T02:54:46.812Z,69.53
2018-12-19T02:55:46.766Z,69.64
2018-12-19T02:56:46.759Z,69.84
2018-12-19T02:57:46.783Z,69.84
2018-12-19T02:58:46.758Z,70.05
2018-12-19T02:59:46.748Z,70.15
2018-12-19T03:00:46.771Z,70.36
2018-12-19T03:01:46.748Z,70.26
2018-12-19T03:02:46.711Z,70.36
2018-12-19T03:03:46.730Z,70.26
2018-12-19T03:04:46.704Z,70.36
2018-12-19T03:05:46.693Z,70.57
2018-12-19T03:06:46.667Z,69.95
2018-12-19T03:07:46.657Z,70.67
2018-12-19T03:08:46.703Z,70.05
2018-12-19T03:09:46.608Z,70.43
2018-12-19T03:10:46.599Z,70.47
2018-12-19T03:11:46.614Z,70.67
2018-12-19T03:12:46.601Z,70.67
2018-12-19T03:13:46.797Z,70.57
2018-12-19T03:14:46.554Z,70.67
2018-12-19T03:15:46.569Z,70.77
2018-12-19T03:16:46.567Z,71.08
2018-12-19T03:17:46.520Z,70.98
2018-12-19T03:18:46.516Z,71.15
2018-12-19T03:19:46.541Z,70.98
2018-12-19T03:20:46.515Z,70.87
2018-12-19T03:21:46.502Z,70.87
2018-12-19T03:22:46.516Z,71.36
2018-12-19T03:23:46.461Z,71.36
2018-12-19T03:24:46.480Z,71.19
2018-12-19T03:25:46.433Z,71.50
2018-12-19T03:26:46.429Z,71.19
2018-12-19T03:27:46.414Z,71.08
2018-12-19T03:28:46.436Z,71.67
2018-12-19T03:29:46.419Z,71.67
2018-12-19T03:32:02.593Z,71.88
2018-12-19T03:33:02.580Z,71.50
2018-12-19T03:34:02.569Z,71.67
2018-12-19T03:35:02.532Z,71.47
2018-12-19T03:36:02.539Z,71.81
2018-12-19T03:37:02.528Z,72.29
2018-12-19T03:38:02.497Z,72.08
2018-12-19T03:39:02.501Z,71.36
2018-12-19T03:40:02.482Z,71.47
2018-12-19T03:41:02.505Z,71.91
2018-12-19T03:42:02.453Z,71.67
2018-12-19T03:43:02.452Z,71.98
2018-12-19T03:44:02.456Z,71.67
2018-12-19T03:45:02.420Z,71.36
2018-12-19T03:46:02.449Z,71.67
2018-12-19T03:47:02.429Z,71.47
2018-12-19T03:48:02.385Z,71.67
2018-12-19T03:49:02.369Z,71.57
2018-12-19T03:50:02.369Z,71.57
2018-12-19T03:51:02.368Z,71.26
2018-12-19T03:52:02.570Z,71.36
2018-12-19T03:53:02.365Z,70.95
2018-12-19T03:54:02.347Z,70.81
2018-12-19T03:55:02.308Z,70.95
2018-12-19T03:56:02.294Z,71.05
2018-12-19T03:57:02.291Z,70.81
2018-12-19T03:58:02.308Z,70.43
2018-12-19T03:59:02.293Z,70.32
2018-12-19T04:00:02.313Z,70.71
2018-12-19T04:01:02.263Z,70.61
2018-12-19T04:02:02.236Z,70.64
2018-12-19T04:03:02.229Z,70.81
2018-12-19T04:04:02.233Z,70.40
2018-12-19T04:05:02.233Z,70.50
2018-12-19T04:06:02.229Z,70.64
2018-12-19T04:07:02.183Z,70.29
2018-12-19T04:08:02.200Z,70.50
2018-12-19T04:09:02.200Z,70.61
2018-12-19T04:10:02.224Z,70.71
2018-12-19T04:11:02.139Z,70.71
2018-12-19T04:12:02.183Z,70.71
2018-12-19T04:13:02.138Z,70.61
2018-12-19T04:14:02.140Z,70.81
2018-12-19T04:15:02.135Z,70.81
2018-12-19T04:16:02.131Z,70.50
2018-12-19T04:17:02.107Z,70.61
2018-12-19T04:18:02.061Z,70.71
2018-12-19T04:19:02.050Z,70.61
2018-12-19T04:20:02.095Z,70.71
2018-12-19T04:21:02.292Z,70.29
2018-12-19T04:22:02.045Z,70.50
2018-12-19T04:23:02.039Z,70.19
2018-12-19T04:24:02.022Z,70.40
2018-12-19T04:25:01.986Z,70.37
2018-12-19T04:26:02.013Z,70.40
2018-12-19T04:27:02.014Z,70.29
2018-12-19T04:28:01.960Z,70.47
2018-12-19T04:29:02.011Z,70.37
2018-12-19T04:30:01.949Z,70.16
2018-12-19T04:31:01.951Z,69.88
2018-12-19T04:32:01.927Z,69.74
2018-12-19T04:33:01.901Z,69.95
2018-12-19T04:34:01.924Z,69.74
2018-12-19T04:35:01.915Z,69.74
2018-12-19T04:36:01.876Z,70.37
2018-12-19T04:37:01.904Z,69.64
2018-12-19T04:38:01.854Z,69.85
2018-12-19T04:39:01.878Z,69.74
2018-12-19T04:40:05.584Z,69.95
2018-12-19T04:41:01.857Z,70.06
2018-12-19T04:42:01.844Z,69.54
2018-12-19T04:43:01.817Z,69.95
2018-12-19T04:44:01.826Z,69.74
2018-12-19T04:45:01.805Z,69.85
2018-12-19T04:46:01.840Z,69.64
2018-12-19T04:47:01.849Z,70.37
2018-12-19T04:48:01.779Z,70.26
2018-12-19T04:49:01.750Z,70.16
2018-12-19T04:50:01.763Z,70.37
2018-12-19T04:51:01.730Z,70.67
2018-12-19T04:52:01.774Z,71.37
2018-12-19T04:53:01.715Z,71.61
2018-12-19T04:54:01.749Z,71.81
2018-12-19T04:55:01.682Z,71.92
2018-12-19T04:56:01.683Z,72.12
2018-12-19T04:57:01.700Z,72.43
2018-12-19T04:58:01.650Z,72.53
2018-12-19T04:59:01.737Z,72.22
2018-12-19T05:00:01.609Z,72.64
2018-12-19T05:01:01.598Z,73.26
2018-12-19T05:02:01.637Z,73.16
2018-12-19T05:03:01.608Z,73.05
2018-12-19T05:04:01.585Z,72.95
2018-12-19T05:05:01.605Z,73.05
2018-12-19T05:06:01.592Z,73.16
2018-12-19T05:07:01.554Z,72.64
2018-12-19T05:08:01.571Z,72.64
2018-12-19T05:09:01.542Z,73.47
2018-12-19T05:10:01.504Z,74.19
2018-12-19T05:11:01.538Z,74.29
2018-12-19T05:12:01.513Z,74.29
2018-12-19T05:13:01.528Z,74.40
2018-12-19T05:14:01.505Z,74.29
2018-12-19T05:15:01.483Z,74.19
2018-12-19T05:16:01.463Z,74.19
2018-12-19T05:17:01.425Z,73.98
2018-12-19T05:18:01.459Z,74.71
2018-12-19T05:19:01.458Z,74.81
2018-12-19T05:20:01.426Z,75.01
2018-12-19T05:21:01.383Z,75.01
2018-12-19T05:22:01.376Z,75.22
2018-12-19T05:23:01.409Z,74.60
2018-12-19T05:24:01.386Z,76.05
2018-12-19T05:25:01.359Z,75.74
2018-12-19T05:26:01.357Z,75.95
2018-12-19T05:27:01.339Z,76.26
2018-12-19T05:28:01.340Z,75.95
2018-12-19T05:29:01.321Z,76.46
2018-12-19T05:30:01.326Z,76.77
2018-12-19T05:31:01.279Z,76.36
2018-12-19T05:32:01.265Z,76.87
2018-12-19T05:33:01.264Z,77.50
2018-12-19T05:34:01.263Z,77.60
2018-12-19T05:35:01.264Z,77.70
2018-12-19T05:36:01.334Z,78.11
2018-12-19T05:37:01.234Z,78.11
2018-12-19T05:38:01.243Z,77.87
2018-12-19T05:39:01.237Z,77.87
2018-12-19T05:40:01.226Z,78.11
2018-12-19T05:41:01.172Z,78.42
2018-12-19T05:42:01.171Z,78.42
2018-12-19T05:43:01.148Z,78.01
2018-12-19T05:44:01.196Z,78.63
2018-12-19T05:45:01.129Z,78.53
2018-12-19T05:46:01.130Z,79.05
2018-12-19T05:47:01.286Z,78.63
2018-12-19T05:48:01.095Z,78.32
2018-12-19T05:49:01.090Z,78.74
2018-12-19T05:50:01.070Z,78.91
2018-12-19T05:51:01.070Z,79.36
2018-12-19T05:52:01.052Z,79.25
2018-12-19T05:53:01.115Z,78.80
2018-12-19T05:54:01.055Z,79.15
2018-12-19T05:55:01.038Z,78.42
2018-12-19T05:56:01.037Z,79.01
2018-12-19T05:57:01.040Z,78.91
2018-12-19T05:58:00.990Z,79.77
2018-12-19T05:59:01.003Z,79.94
2018-12-19T06:00:00.996Z,80.29
2018-12-19T06:01:00.960Z,80.35
2018-12-19T06:02:00.943Z,80.15
2018-12-19T06:03:00.946Z,80.15
2018-12-19T06:04:00.928Z,80.66
2018-12-19T06:05:00.913Z,80.76
2018-12-19T06:06:00.926Z,79.73
2018-12-19T06:07:00.895Z,80.56
2018-12-19T06:08:00.880Z,80.76
2018-12-19T06:09:00.887Z,80.97
2018-12-19T06:10:00.856Z,80.87
2018-12-19T06:11:00.884Z,80.97
2018-12-19T06:12:00.843Z,80.97
2018-12-19T06:13:01.058Z,80.46
2018-12-19T06:14:00.817Z,80.46
2018-12-19T06:15:00.806Z,80.46
2018-12-19T06:16:00.797Z,81.18
2018-12-19T06:17:00.783Z,80.76
2018-12-19T06:18:00.776Z,81.28
2018-12-19T06:19:01.003Z,80.15
2018-12-19T06:20:00.754Z,81.18
2018-12-19T06:21:00.734Z,81.18
2018-12-19T06:22:00.779Z,80.76
2018-12-19T06:23:00.746Z,80.56
2018-12-19T06:24:00.734Z,80.66
2018-12-19T06:25:00.783Z,80.25
2018-12-19T06:26:00.730Z,80.35
2018-12-19T06:27:00.677Z,80.56
2018-12-19T06:28:00.684Z,80.56
2018-12-19T06:29:00.686Z,80.56
2018-12-19T06:30:00.668Z,80.76
2018-12-19T06:31:00.689Z,80.66
2018-12-19T06:32:00.675Z,80.56
2018-12-19T06:33:00.657Z,80.76
2018-12-19T06:34:00.624Z,80.66
2018-12-19T06:35:00.587Z,80.62
2018-12-19T06:36:00.578Z,80.66
2018-12-19T06:37:00.610Z,80.32
2018-12-19T06:38:00.585Z,80.35
2018-12-19T06:39:00.595Z,80.56
2018-12-19T06:40:00.553Z,80.56
2018-12-19T06:41:00.547Z,80.42
2018-12-19T06:42:00.552Z,80.56
2018-12-19T06:43:00.555Z,80.83
2018-12-19T06:44:00.526Z,81.24
2018-12-19T06:45:00.511Z,81.04
2018-12-19T06:46:00.491Z,81.14
2018-12-19T06:47:00.483Z,80.93
2018-12-19T06:48:00.691Z,81.28
2018-12-19T06:49:00.441Z,81.04
2018-12-19T06:50:00.426Z,81.04
2018-12-19T06:51:00.412Z,80.93
2018-12-19T06:52:01.766Z,81.14
2018-12-19T06:53:00.416Z,81.04
2018-12-19T06:54:00.474Z,81.56
2018-12-19T06:55:00.391Z,81.56
2018-12-19T06:56:00.396Z,81.56
2018-12-19T06:57:00.360Z,82.07
2018-12-19T06:58:00.375Z,81.66
2018-12-19T06:59:00.364Z,82.07
2018-12-19T07:00:00.338Z,81.96
2018-12-19T07:01:00.308Z,81.76
2018-12-19T07:02:00.318Z,81.96
2018-12-19T07:03:00.354Z,81.76
2018-12-19T07:04:00.273Z,82.28
2018-12-19T07:05:00.264Z,82.07
2018-12-19T07:06:00.261Z,82.59
2018-12-19T07:07:00.240Z,82.59
2018-12-19T07:08:00.227Z,82.28
2018-12-19T07:09:00.254Z,82.48
2018-12-19T07:10:00.210Z,82.69
2018-12-19T07:11:00.197Z,83.31
2018-12-19T07:12:00.187Z,83.06
2018-12-19T07:13:00.209Z,83.10
2018-12-19T07:14:00.167Z,83.06
2018-12-19T07:15:00.154Z,83.58
2018-12-19T07:16:00.142Z,83.31
2018-12-19T07:17:00.133Z,83.58
2018-12-19T07:18:00.121Z,83.62
2018-12-19T07:19:00.140Z,83.78
2018-12-19T07:20:00.106Z,83.89
2018-12-19T07:21:00.101Z,84.86
2018-12-19T07:22:00.134Z,85.47
2018-12-19T07:23:00.075Z,84.92
2018-12-19T07:24:00.221Z,85.27
2018-12-19T07:25:00.044Z,84.96
2018-12-19T07:26:00.037Z,85.17
2018-12-19T07:27:00.023Z,85.17
2018-12-19T07:28:00.044Z,85.47
2018-12-19T07:29:00.046Z,85.37
2018-12-19T07:30:00.020Z,85.27
2018-12-19T07:31:00.000Z,85.27
2018-12-19T07:31:59.996Z,85.68
2018-12-19T07:32:59.983Z,85.47
2018-12-19T07:33:59.952Z,85.89
2018-12-19T07:34:59.996Z,85.78
2018-12-19T07:35:59.948Z,85.95
2018-12-19T07:36:59.959Z,85.58
2018-12-19T07:37:59.918Z,85.78
2018-12-19T07:38:59.955Z,85.58
2018-12-19T07:39:59.926Z,86.10
2018-12-19T07:40:59.891Z,86.10
2018-12-19T07:41:59.904Z,86.71
2018-12-19T07:42:59.862Z,86.20
2018-12-19T07:43:59.871Z,87.23
2018-12-19T07:44:59.836Z,87.23
2018-12-19T07:45:59.815Z,86.47
2018-12-19T07:46:59.827Z,87.34
2018-12-19T07:47:59.800Z,87.08
2018-12-19T07:48:59.821Z,87.23
2018-12-19T07:49:59.790Z,87.40
2018-12-19T07:50:59.775Z,86.92
2018-12-19T07:51:59.768Z,87.02
2018-12-19T07:52:59.861Z,87.44
2018-12-19T07:53:59.731Z,87.02
2018-12-19T07:54:59.776Z,87.81
2018-12-19T07:55:59.736Z,87.60
2018-12-19T07:56:59.711Z,87.74
2018-12-19T07:57:59.721Z,87.85
2018-12-19T07:58:59.701Z,87.54
2018-12-19T07:59:59.695Z,87.81
2018-12-19T08:00:59.677Z,87.85
2018-12-19T08:01:59.677Z,88.12
2018-12-19T08:02:59.654Z,87.81
2018-12-19T08:03:59.701Z,88.16
2018-12-19T08:04:59.637Z,88.68
2018-12-19T08:05:59.670Z,88.57
2018-12-19T08:06:59.669Z,88.57
2018-12-19T08:07:59.608Z,88.57
2018-12-19T08:08:59.613Z,88.16
2018-12-19T08:09:59.623Z,88.57
2018-12-19T08:10:59.633Z,88.26
2018-12-19T08:11:59.537Z,87.95
2018-12-19T08:12:59.529Z,88.06
2018-12-19T08:13:59.548Z,88.22
2018-12-19T08:14:59.521Z,88.53
2018-12-19T08:15:59.558Z,88.78
2018-12-19T08:16:59.583Z,89.56
2018-12-19T08:17:59.477Z,89.61
2018-12-19T08:18:59.520Z,89.09
2018-12-19T08:19:59.545Z,89.71
2018-12-19T08:20:59.456Z,89.71
2018-12-19T08:21:59.433Z,89.71
2018-12-19T08:22:59.465Z,90.43
2018-12-19T08:23:59.407Z,90.53
2018-12-19T08:24:59.423Z,90.02
2018-12-19T08:25:59.452Z,90.19
2018-12-19T08:26:59.375Z,90.12
2018-12-19T08:27:59.383Z,89.81
2018-12-19T08:28:59.358Z,90.28
2018-12-19T08:29:59.359Z,90.28
2018-12-19T08:30:59.360Z,90.33
2018-12-19T08:31:59.399Z,90.33
2018-12-19T08:32:59.319Z,90.28
2018-12-19T08:33:59.335Z,90.28
2018-12-19T08:34:59.290Z,90.49
2018-12-19T08:35:59.298Z,91.26
2018-12-19T08:36:59.292Z,91.01
2018-12-19T08:37:59.255Z,90.84
2018-12-19T08:38:59.320Z,91.11
2018-12-19T08:39:59.264Z,91.01
2018-12-19T08:40:59.245Z,91.11
2018-12-19T08:41:59.234Z,91.52
2018-12-19T08:42:59.245Z,91.46
2018-12-19T08:43:59.244Z,91.52
2018-12-19T08:44:59.205Z,91.52
2018-12-19T08:45:59.212Z,91.56
2018-12-19T08:46:59.207Z,91.52
2018-12-19T08:47:59.157Z,91.42
2018-12-19T08:48:59.136Z,91.11
2018-12-19T08:49:59.202Z,91.32
2018-12-19T08:50:59.146Z,91.42
2018-12-19T08:51:59.156Z,91.42
2018-12-19T08:52:59.123Z,91.32
2018-12-19T08:53:59.172Z,91.46
2018-12-19T08:54:59.093Z,91.56
2018-12-19T08:55:59.114Z,91.46
2018-12-19T08:56:59.075Z,91.22
2018-12-19T08:57:59.041Z,91.73
2018-12-19T08:58:59.054Z,91.22
2018-12-19T08:59:59.014Z,91.83
2018-12-19T09:00:59.028Z,91.22
2018-12-19T09:01:59.069Z,91.52
2018-12-19T09:02:58.983Z,91.73
2018-12-19T09:03:58.967Z,91.42
2018-12-19T09:04:58.991Z,91.73
2018-12-19T09:05:59.000Z,91.83
2018-12-19T09:06:58.975Z,91.52
2018-12-19T09:07:58.967Z,91.98
2018-12-19T09:08:58.918Z,91.73
2018-12-19T09:09:58.928Z,91.63
2018-12-19T09:11:05.476Z,91.73
2018-12-19T09:11:59.902Z,91.56
2018-12-19T09:12:58.905Z,91.52
2018-12-19T09:13:58.967Z,91.52
2018-12-19T09:14:58.852Z,91.88
2018-12-19T09:15:58.891Z,91.42
2018-12-19T09:16:58.831Z,91.32
2018-12-19T09:17:58.867Z,91.32
2018-12-19T09:18:58.820Z,91.52
2018-12-19T09:19:59.060Z,91.73
2018-12-19T09:20:58.797Z,91.32
2018-12-19T09:21:58.783Z,91.11
2018-12-19T09:22:58.797Z,91.52
2018-12-19T09:23:58.753Z,91.22
2018-12-19T09:24:58.818Z,91.22
2018-12-19T09:25:58.789Z,91.52
2018-12-19T09:26:58.726Z,91.63
2018-12-19T09:27:58.743Z,91.73
2018-12-19T09:28:58.731Z,91.42
2018-12-19T09:29:58.710Z,90.97
2018-12-19T09:30:58.707Z,91.07
2018-12-19T09:31:58.712Z,90.97
2018-12-19T09:32:58.658Z,91.22
2018-12-19T09:33:58.687Z,91.11
2018-12-19T09:34:58.681Z,91.07
2018-12-19T09:35:58.637Z,91.28
2018-12-19T09:36:58.627Z,91.17
2018-12-19T09:37:58.684Z,90.97
2018-12-19T09:38:58.662Z,90.97
2018-12-19T09:39:58.580Z,91.17
2018-12-19T09:40:58.590Z,91.22
2018-12-19T09:41:58.603Z,91.17
2018-12-19T09:42:58.579Z,91.17
2018-12-19T09:43:58.584Z,90.45
2018-12-19T09:44:58.545Z,90.25
2018-12-19T09:45:58.516Z,90.35
2018-12-19T09:46:58.521Z,90.04
2018-12-19T09:47:58.519Z,89.94
2018-12-19T09:48:58.524Z,90.04
2018-12-19T09:49:58.500Z,90.25
2018-12-19T09:50:58.463Z,90.04
2018-12-19T09:51:58.531Z,90.35
2018-12-19T09:52:58.489Z,90.25
2018-12-19T09:53:58.474Z,90.14
2018-12-19T09:54:58.465Z,90.04
2018-12-19T09:55:58.432Z,90.00
2018-12-19T09:56:58.422Z,89.94
2018-12-19T09:57:58.413Z,90.04
2018-12-19T09:58:58.410Z,90.00
2018-12-19T09:59:58.447Z,90.10
2018-12-19T10:00:58.886Z,90.00
2018-12-19T10:01:58.357Z,90.00
2018-12-19T10:02:58.333Z,90.20
2018-12-19T10:03:58.846Z,90.31
2018-12-19T10:04:58.335Z,90.10
2018-12-19T10:05:58.340Z,90.31
2018-12-19T10:06:58.288Z,90.31
2018-12-19T10:07:58.305Z,89.58
2018-12-19T10:08:58.326Z,89.44
2018-12-19T10:09:58.277Z,89.89
2018-12-19T10:10:58.263Z,89.28
2018-12-19T10:11:58.247Z,89.34
2018-12-19T10:12:58.225Z,89.44
2018-12-19T10:13:58.290Z,89.54
2018-12-19T10:14:58.231Z,89.03
2018-12-19T10:15:58.204Z,89.44
2018-12-19T10:16:58.215Z,89.03
2018-12-19T10:17:58.203Z,88.62
2018-12-19T10:18:58.152Z,88.51
2018-12-19T10:19:58.170Z,89.23
2018-12-19T10:20:58.129Z,88.82
2018-12-19T10:21:58.139Z,88.99
2018-12-19T10:22:58.107Z,88.99
2018-12-19T10:23:58.102Z,89.19
2018-12-19T10:24:58.095Z,89.40
2018-12-19T10:25:58.118Z,88.99
2018-12-19T10:26:58.109Z,88.99
2018-12-19T10:27:58.063Z,89.40
2018-12-19T10:28:58.073Z,89.25
2018-12-19T10:29:58.028Z,89.15
2018-12-19T10:30:58.175Z,88.37
2018-12-19T10:31:58.048Z,88.84
2018-12-19T10:32:57.997Z,88.26
2018-12-19T10:33:58.000Z,88.74
2018-12-19T10:34:57.972Z,88.06
2018-12-19T10:35:57.975Z,88.06
2018-12-19T10:36:57.972Z,88.37
2018-12-19T10:37:57.973Z,88.12
2018-12-19T10:38:57.951Z,88.23
2018-12-19T10:39:57.922Z,88.06
2018-12-19T10:40:57.933Z,87.85
2018-12-19T10:41:57.897Z,87.60
2018-12-19T10:42:57.924Z,87.81
2018-12-19T10:43:57.932Z,87.40
2018-12-19T10:44:57.856Z,87.51
2018-12-19T10:45:57.879Z,87.51
2018-12-19T10:46:57.902Z,87.71
2018-12-19T10:47:57.849Z,87.30
2018-12-19T10:48:57.847Z,87.30
2018-12-19T10:49:57.872Z,87.92
2018-12-19T10:50:57.831Z,87.30
2018-12-19T10:51:57.848Z,87.19
2018-12-19T10:52:57.814Z,87.51
2018-12-19T10:53:57.757Z,87.19
2018-12-19T10:54:57.746Z,87.19
2018-12-19T10:55:57.925Z,87.51
2018-12-19T10:56:57.758Z,86.99
2018-12-19T10:57:57.759Z,86.88
2018-12-19T10:58:57.718Z,86.99
2018-12-19T10:59:57.686Z,86.88
2018-12-19T11:00:57.677Z,86.88
2018-12-19T11:01:57.719Z,87.05
2018-12-19T11:02:57.697Z,86.88
2018-12-19T11:03:57.702Z,86.88
2018-12-19T11:04:57.661Z,86.74
2018-12-19T11:05:57.639Z,86.99
2018-12-19T11:06:57.652Z,86.88
2018-12-19T11:07:57.597Z,87.40
2018-12-19T11:08:57.594Z,86.79
2018-12-19T11:09:57.624Z,86.58
2018-12-19T11:10:57.561Z,86.79
2018-12-19T11:11:57.586Z,86.58
2018-12-19T11:12:57.568Z,86.27
2018-12-19T11:13:57.593Z,86.06
2018-12-19T11:14:57.552Z,86.58
2018-12-19T11:15:57.519Z,85.96
2018-12-19T11:16:57.662Z,86.23
2018-12-19T11:17:57.509Z,86.58
2018-12-19T11:18:57.505Z,86.58
2018-12-19T11:19:57.462Z,86.47
2018-12-19T11:20:57.476Z,86.43
2018-12-19T11:21:57.487Z,86.68
2018-12-19T11:22:57.472Z,86.74
2018-12-19T11:23:57.433Z,86.85
2018-12-19T11:24:57.401Z,86.85
2018-12-19T11:25:57.403Z,86.74
2018-12-19T11:26:57.416Z,86.79
2018-12-19T11:27:57.412Z,86.68
2018-12-19T11:28:57.380Z,86.23
2018-12-19T11:29:57.348Z,86.43
2018-12-19T11:30:57.337Z,86.02
2018-12-19T11:31:57.418Z,85.65
2018-12-19T11:32:57.358Z,85.71
2018-12-19T11:33:57.364Z,86.54
2018-12-19T11:34:57.314Z,86.13
2018-12-19T11:35:57.309Z,85.92
2018-12-19T11:36:57.272Z,85.82
2018-12-19T11:37:57.335Z,86.02
2018-12-19T11:38:57.332Z,86.54
2018-12-19T11:39:57.294Z,85.92
2018-12-19T11:40:57.303Z,85.61
2018-12-19T11:41:57.244Z,85.51
2018-12-19T11:42:57.234Z,85.51
2018-12-19T11:43:57.276Z,86.23
2018-12-19T11:44:57.179Z,86.02
2018-12-19T11:45:57.206Z,86.13
2018-12-19T11:46:57.159Z,85.30
2018-12-19T11:47:57.154Z,85.78
2018-12-19T11:48:57.205Z,85.71
2018-12-19T11:49:57.128Z,85.47
2018-12-19T11:50:57.120Z,85.36
2018-12-19T11:51:57.119Z,85.88
2018-12-19T11:52:57.124Z,85.47
2018-12-19T11:53:57.090Z,84.85
2018-12-19T11:54:57.097Z,85.16
2018-12-19T11:55:57.078Z,84.64
2018-12-19T11:56:57.049Z,84.85
2018-12-19T11:57:57.077Z,84.95
2018-12-19T11:58:57.055Z,85.26
2018-12-19T11:59:57.058Z,85.22
2018-12-19T12:00:57.002Z,84.85
2018-12-19T12:01:57.035Z,84.95
2018-12-19T12:02:57.010Z,84.54
2018-12-19T12:03:57.000Z,84.95
2018-12-19T12:04:56.981Z,84.54
2018-12-19T12:05:56.952Z,84.95
2018-12-19T12:06:56.975Z,84.91
2018-12-19T12:07:56.942Z,85.16
2018-12-19T12:08:56.973Z,84.64
2018-12-19T12:09:56.900Z,85.12
2018-12-19T12:10:56.898Z,83.92
2018-12-19T12:11:56.903Z,83.89
2018-12-19T12:12:56.871Z,83.68
2018-12-19T12:13:56.886Z,83.83
2018-12-19T12:14:56.911Z,83.62
2018-12-19T12:15:56.886Z,83.78
2018-12-19T12:16:56.833Z,83.83
2018-12-19T12:17:56.819Z,83.51
2018-12-19T12:18:56.807Z,83.48
2018-12-19T12:19:56.901Z,83.68
2018-12-19T12:20:56.816Z,83.68
2018-12-19T12:21:56.771Z,83.68
2018-12-19T12:22:56.778Z,83.78
2018-12-19T12:23:56.772Z,83.78
2018-12-19T12:24:56.744Z,83.89
2018-12-19T12:25:56.756Z,83.89
2018-12-19T12:26:56.709Z,83.89
2018-12-19T12:27:56.713Z,83.78
2018-12-19T12:28:56.729Z,83.78
2018-12-19T12:29:56.683Z,83.58
2018-12-19T12:30:56.713Z,83.48
2018-12-19T12:31:56.686Z,83.17
2018-12-19T12:32:56.670Z,83.27
2018-12-19T12:33:56.645Z,83.37
2018-12-19T12:34:56.639Z,83.89
2018-12-19T12:35:56.650Z,83.78
2018-12-19T12:36:56.624Z,83.68
2018-12-19T12:37:56.618Z,83.68
2018-12-19T12:38:56.595Z,83.68
2018-12-19T12:39:56.628Z,83.27
2018-12-19T12:40:56.563Z,83.99
2018-12-19T12:41:56.569Z,83.58
2018-12-19T12:42:56.575Z,83.78
2018-12-19T12:43:56.555Z,83.68
2018-12-19T12:44:56.556Z,83.68
2018-12-19T12:45:56.506Z,83.99
2018-12-19T12:46:56.497Z,83.78
2018-12-19T12:47:56.497Z,83.68
2018-12-19T12:48:56.491Z,83.99
2018-12-19T12:49:56.503Z,84.09
2018-12-19T12:50:56.474Z,83.99
2018-12-19T12:51:56.461Z,84.20
2018-12-19T12:52:56.429Z,84.40
2018-12-19T12:53:56.425Z,84.09